utilisation pie
utilisation bar
humidity graph
temperature graph
Station id: aae83c for 2 days

start:   stop:  

day time in temp out temp in RH out RH H quota rule action
2020-04-06 00:04:20 11.7 6.1 51 80 109 H 0
2020-04-06 00:34:22 11.4 5.1 51 83 108 H 0
2020-04-06 01:04:23 11.1 5.9 52 80 111 H 0
2020-04-06 01:34:24 10.9 5.2 52 82 109 H 0
2020-04-06 02:04:25 10.7 4.7 52 86 112 H 0
2020-04-06 02:34:26 10.5 4.2 52 87 110 H 0
2020-04-06 03:04:27 10.3 5.8 53 80 112 H 0
2020-04-06 03:34:28 11.2 4.2 51 88 110 H 0
2020-04-06 04:04:29 10.7 4.0 52 88 109 H 0
2020-04-06 04:34:31 10.3 4.4 53 82 107 H 0
2020-04-06 05:04:32 9.9 3.4 53 89 109 H 0
2020-04-06 05:34:33 9.8 4.0 53 88 113 H 0
2020-04-06 06:04:34 9.6 3.4 53 90 112 H 0
2020-04-06 06:34:35 9.4 3.0 54 92 111 H 0
2020-04-06 07:04:36 9.2 3.7 54 91 115 H 0
2020-04-06 07:34:37 9.1 4.5 54 88 118 H 0
2020-04-06 08:04:38 9.0 5.5 55 83 121 H 0
2020-04-06 08:34:40 8.9 6.5 55 77 120 H 0
2020-04-06 09:04:41 8.8 7.8 55 69 117 H 0
2020-04-06 09:34:42 8.8 8.7 55 64 115 H 0
2020-04-06 10:04:43 8.8 9.8 55 59 114 H 0
2020-04-06 10:34:44 8.8 10.1 56 54 107 H 0
2020-04-06 11:04:45 9.2 11.9 55 48 105 H 0
2020-04-06 11:34:46 11.0 12.9 50 43 97 H 0
2020-04-06 12:04:47 9.8 13.3 53 38 91 T
1
2020-04-06 12:34:49 9.8 14.4 53 37 93 T
1
2020-04-06 13:04:50 9.9 14.4 53 34 84 T
1
2020-04-06 13:34:51 10.0 14.7 53 32 81 T
1
2020-04-06 14:04:52 10.1 14.7 53 31 79 T
1
2020-04-06 14:34:53 10.2 14.4 53 32 80 T
1
2020-04-06 15:04:54 10.4 14.0 52 31 74 T
1
2020-04-06 15:34:55 10.5 14.1 52 31 73 T
1
2020-04-06 16:04:56 10.7 13.8 52 30 71 T
1
2020-04-06 16:34:58 12.1 13.5 48 31 70 V
1
2020-04-06 17:04:59 11.3 13.4 50 31 70 T
1
2020-04-06 17:35:00 11.2 12.8 50 33 73 T
1
2020-04-06 18:05:01 11.1 12.6 47 34 78 V
1
2020-04-06 18:35:02 11.0 11.9 48 34 75 G 0
2020-04-06 19:05:03 10.9 10.8 49 36 72 G 0
2020-04-06 19:35:04 10.8 9.9 49 37 71 G 0
2020-04-06 20:05:05 10.9 9.2 50 38 69 G 0
2020-04-06 20:35:07 12.3 8.2 47 42 69 G 0
2020-04-06 21:05:08 11.2 7.8 50 44 71 G 0
2020-04-06 21:35:09 10.9 7.0 50 49 76 T
1
2020-04-06 22:05:10 10.6 6.6 51 53 81 T
1
2020-04-06 22:35:11 10.5 6.1 51 57 84 T
1
2020-04-06 23:05:12 10.3 5.8 52 61 88 T
1
2020-04-06 23:35:13 10.2 5.4 52 66 93 T
1
2020-04-07 00:05:14 10.0 5.1 52 69 95 H 0
2020-04-07 00:35:16 9.9 5.1 53 72 100 H 0
2020-04-07 01:05:17 10.3 4.8 52 74 99 H 0
2020-04-07 01:35:18 10.9 4.6 51 75 98 H 0
2020-04-07 02:05:19 9.9 3.5 53 78 96 H 0
2020-04-07 02:35:20 9.6 4.0 54 80 102 H 0
2020-04-07 03:05:21 9.4 3.2 54 78 96 H 0
2020-04-07 03:35:22 9.3 3.6 54 81 103 H 0
2020-04-07 04:05:23 9.2 3.1 55 81 100 H 0
2020-04-07 04:35:25 9.0 3.1 54 81 100 H 0
2020-04-07 05:05:26 8.9 3.1 55 82 103 H 0
2020-04-07 05:35:27 8.7 2.6 55 84 101 H 0
2020-04-07 06:05:28 8.6 3.1 55 85 106 H 0
2020-04-07 06:35:29 8.4 3.0 56 86 107 H 0
2020-04-07 07:05:30 8.3 3.4 56 85 109 H 0
2020-04-07 07:35:31 8.2 4.6 56 82 113 H 0
2020-04-07 08:05:32 8.2 6.3 57 75 117 H 0
2020-04-07 08:35:34 8.1 7.6 57 69 117 H 0
2020-04-07 09:05:35 8.1 9.0 57 64 120 H 0
2020-04-07 09:35:36 8.1 9.7 57 61 119 H 0
2020-04-07 10:05:37 8.2 10.2 56 58 117 H 0
2020-04-07 10:35:38 8.4 8.2 56 81 142 H 0
2020-04-07 11:05:39 9.8 8.2 53 81 139 H 0
2020-04-07 11:35:40 9.4 9.7 54 75 140 H 0


2020-04-07 12:10:25 CEST